Shrewsbury Township, New Jersey
Current Conditions -  °F | °C
As of 3:55 PM on Tuesday 27 Jan 2015 (Local Time) from KBLM Reporting Station
Scattered Clouds Scattered Clouds  
Wind Chill: 18°   Ceiling: Unl
Heat Index: 28°   Visibility: 10mi
Dew Point: 16°   Wind: 12mph
Humidity: 59%   Direction: 310°NW
Pressure: 29.65"   Gusts: NA
Location:  40.2996°N, 74.074°W
Report Text: KBLM 272055Z AUTO 31010KT 10SM SCT120 M02/M09 A2965 RMK AO1 54000
Loading
Personal Weather Stations






























Interactive Weather Map New forecast layout! Learn more

10-Day Weather Forecast

Advertisements
Track Severe Weather on mobile